Merksplas, Belgium
Current Conditions -  °F | °C
As of 10:51 AM on Thursday 23 Oct 2014 (Local Time) from EHGR Reporting Station
Broken Clouds Broken Clouds  
Wind Chill: 54°   Ceiling: 13000
Heat Index: 54°   Visibility: 6mi
Dew Point: 48°   Wind: 8mph
Humidity: 82%   Direction: 230°SW
Pressure: 30.18"   Gusts: NA
Location:  51.36°N, 4.87°E
Report Text: EHGR 230851Z AUTO 23007KT 9999 SCT034 SCT087 BKN130 12/09 Q1022 BLU 21007KT 9999 BKN030
Loading
Personal Weather Stations






























Interactive Weather Map
Tropical Storm Tracking
New forecast layout! Learn more

10-Day Weather Forecast

Advertisements
Track Severe Weather on mobile